Time;durP1;ratioP1;P1;durP2;ratioP2;P2;SDS_P1;SDS_P2;PMS_P1;PMS_P2;Temp;Humidity;BMP_temperature;BMP_pressure;BME280_temperature;BME280_humidity;BME280_pressure;Samples;Min_cycle;Max_cycle;Signal;HPM_P1;HPM_P2
2021/07/28 00:01:03;;;;;;;2.87;1.93;;;17.90;99.90;;;;;;6216015;23;20267;-76
2021/07/28 00:03:30;;;;;;;3.20;1.80;;;17.80;99.90;;;;;;6215475;23;20180;-76
2021/07/28 00:05:57;;;;;;;3.20;1.80;;;17.80;99.90;;;;;;6216120;23;20186;-75
2021/07/28 00:08:23;;;;;;;3.67;2.20;;;17.80;99.90;;;;;;6215020;23;20219;-75
2021/07/28 00:10:50;;;;;;;2.90;2.00;;;17.80;99.90;;;;;;6215717;23;20182;-75
2021/07/28 00:13:17;;;;;;;3.27;2.10;;;17.70;99.90;;;;;;6215235;23;20183;-75
2021/07/28 00:15:45;;;;;;;3.30;2.00;;;17.80;99.90;;;;;;6216013;23;20182;-76
2021/07/28 00:18:26;;;;;;;3.53;1.83;;;17.80;99.90;;;;;;6215373;23;20280;-75
2021/07/28 00:23:37;;;;;;;3.70;2.03;;;17.80;99.90;;;;;;6214275;23;20222;-76
2021/07/28 00:26:03;;;;;;;7.00;2.30;;;17.80;99.90;;;;;;6215053;23;20177;-75
2021/07/28 00:28:30;;;;;;;4.47;2.07;;;17.70;99.90;;;;;;6215045;23;20219;-75
2021/07/28 00:30:58;;;;;;;4.37;2.43;;;17.70;99.90;;;;;;6215603;23;20177;-75
2021/07/28 00:33:25;;;;;;;6.50;2.63;;;17.60;99.90;;;;;;6214644;23;20183;-76
2021/07/28 00:35:54;;;;;;;4.57;2.00;;;17.60;99.90;;;;;;6214971;23;20177;-76
2021/07/28 00:38:21;;;;;;;5.07;2.37;;;17.50;99.90;;;;;;6216305;23;20713;-75
2021/07/28 00:40:48;;;;;;;3.70;2.40;;;17.50;99.90;;;;;;6216714;23;20181;-75
2021/07/28 00:43:16;;;;;;;4.73;2.30;;;17.50;99.90;;;;;;6216523;23;20180;-75
2021/07/28 00:45:43;;;;;;;4.90;2.13;;;17.60;99.90;;;;;;6216531;23;20177;-76
2021/07/28 00:48:14;;;;;;;3.60;2.20;;;17.60;99.90;;;;;;6216414;23;20603;-75
2021/07/28 00:50:41;;;;;;;3.50;2.10;;;17.60;99.90;;;;;;6216799;23;20646;-75
2021/07/28 00:53:16;;;;;;;4.90;2.43;;;17.60;99.90;;;;;;6216544;23;20180;-76
2021/07/28 00:55:44;;;;;;;4.93;2.53;;;17.70;99.90;;;;;;6216561;23;20207;-75
2021/07/28 00:58:11;;;;;;;3.30;2.07;;;17.70;99.90;;;;;;6216823;23;20197;-75
2021/07/28 01:00:38;;;;;;;6.53;2.60;;;17.70;99.90;;;;;;6216840;23;20176;-76
2021/07/28 01:03:05;;;;;;;3.47;2.00;;;17.70;99.90;;;;;;6216629;23;20521;-76
2021/07/28 01:05:33;;;;;;;6.37;3.13;;;17.60;99.90;;;;;;6217014;23;20176;-76
2021/07/28 01:08:00;;;;;;;4.93;2.53;;;17.60;99.90;;;;;;6216938;23;20215;-75
2021/07/28 01:10:27;;;;;;;4.00;2.50;;;17.60;99.90;;;;;;6216961;23;20182;-76
2021/07/28 01:12:55;;;;;;;3.80;2.20;;;17.60;99.90;;;;;;6216678;23;20183;-76
2021/07/28 01:15:32;;;;;;;4.53;2.37;;;17.60;99.90;;;;;;6216712;23;20187;-76
2021/07/28 01:18:00;;;;;;;5.40;2.90;;;17.60;99.90;;;;;;6216904;23;20200;-76
2021/07/28 01:20:32;;;;;;;5.43;2.43;;;17.70;99.90;;;;;;6216610;23;20191;-75
2021/07/28 01:23:02;;;;;;;5.77;2.97;;;17.60;99.90;;;;;;6216358;23;20176;-75
2021/07/28 01:25:33;;;;;;;4.77;3.00;;;17.60;99.90;;;;;;6216457;23;20644;-76
2021/07/28 01:28:01;;;;;;;6.63;3.20;;;17.70;99.90;;;;;;6216851;23;20270;-76
2021/07/28 01:30:28;;;;;;;5.57;2.33;;;17.70;99.90;;;;;;6216702;23;20234;-75
2021/07/28 01:32:56;;;;;;;3.83;2.63;;;17.70;99.90;;;;;;6216449;23;20183;-76
2021/07/28 01:35:23;;;;;;;3.37;2.70;;;17.80;99.90;;;;;;6216234;23;20177;-75
2021/07/28 01:37:50;;;;;;;5.43;2.80;;;17.80;99.90;;;;;;6216476;23;20200;-75
2021/07/28 01:40:17;;;;;;;6.07;2.93;;;17.80;99.90;;;;;;6216763;23;20176;-74
2021/07/28 01:42:47;;;;;;;4.47;2.40;;;17.80;99.90;;;;;;6216504;23;20188;-75
2021/07/28 01:45:15;;;;;;;6.20;2.90;;;17.80;99.90;;;;;;6215972;23;20635;-74
2021/07/28 01:47:42;;;;;;;4.77;2.47;;;17.80;99.90;;;;;;6215892;23;20231;-75
2021/07/28 01:50:11;;;;;;;5.07;2.27;;;17.80;99.90;;;;;;6216382;23;20183;-74
2021/07/28 01:52:38;;;;;;;3.80;2.40;;;17.80;99.90;;;;;;6215657;23;20187;-74
2021/07/28 01:55:07;;;;;;;4.17;2.40;;;17.90;99.90;;;;;;6215690;23;20500;-75
2021/07/28 01:57:33;;;;;;;5.10;2.80;;;17.90;99.90;;;;;;6216402;23;20201;-74
2021/07/28 02:00:02;;;;;;;6.47;3.00;;;18.00;99.90;;;;;;6216087;23;20176;-75
2021/07/28 02:02:31;;;;;;;6.63;2.57;;;18.10;99.90;;;;;;6215377;23;20187;-74
2021/07/28 02:04:59;;;;;;;3.93;2.57;;;18.10;99.90;;;;;;6215717;23;20632;-75
2021/07/28 02:07:26;;;;;;;5.33;2.40;;;18.00;99.90;;;;;;6216069;23;20196;-74
2021/07/28 02:09:53;;;;;;;5.70;2.63;;;18.00;99.90;;;;;;6216279;23;20183;-75
2021/07/28 02:12:20;;;;;;;4.23;2.87;;;18.00;99.90;;;;;;6215816;23;20176;-75
2021/07/28 02:14:47;;;;;;;6.97;3.20;;;18.00;99.90;;;;;;6216468;23;20181;-74
2021/07/28 02:17:15;;;;;;;4.50;2.57;;;18.10;99.90;;;;;;6216550;23;20183;-75
2021/07/28 02:19:42;;;;;;;3.90;2.67;;;18.10;99.90;;;;;;6216412;23;20176;-75
2021/07/28 02:22:11;;;;;;;5.10;2.63;;;18.20;99.90;;;;;;6215749;23;20523;-74
2021/07/28 02:24:38;;;;;;;5.60;2.63;;;18.20;99.90;;;;;;6216189;23;20184;-74
2021/07/28 02:27:05;;;;;;;5.83;2.13;;;18.30;99.90;;;;;;6215394;23;20511;-74
2021/07/28 02:29:32;;;;;;;5.43;2.83;;;18.30;99.90;;;;;;6215551;23;20208;-74
2021/07/28 02:31:58;;;;;;;5.40;2.90;;;18.40;99.90;;;;;;6215451;23;20183;-75
2021/07/28 02:34:26;;;;;;;5.37;2.47;;;18.30;99.90;;;;;;6216130;23;20183;-76
2021/07/28 02:36:53;;;;;;;5.43;2.30;;;18.30;99.90;;;;;;6215578;23;20180;-75
2021/07/28 02:39:20;;;;;;;6.13;2.87;;;18.30;99.90;;;;;;6215615;23;20204;-74
2021/07/28 02:41:47;;;;;;;4.73;2.50;;;18.40;99.90;;;;;;6215849;23;20191;-74
2021/07/28 02:44:13;;;;;;;5.07;2.70;;;18.40;99.90;;;;;;6215641;23;20183;-74
2021/07/28 02:46:40;;;;;;;4.40;2.63;;;18.40;99.90;;;;;;6215587;23;20654;-75
2021/07/28 02:49:08;;;;;;;4.17;2.60;;;18.40;99.90;;;;;;6215433;23;20222;-75
2021/07/28 02:51:37;;;;;;;5.00;3.00;;;18.50;99.90;;;;;;6214317;23;20269;-75
2021/07/28 02:54:03;;;;;;;5.67;2.83;;;18.40;99.90;;;;;;6215304;23;20182;-74
2021/07/28 02:56:30;;;;;;;4.50;3.10;;;18.40;99.90;;;;;;6215528;23;20184;-74
2021/07/28 02:58:57;;;;;;;4.40;2.30;;;18.50;99.90;;;;;;6214984;23;20745;-75
2021/07/28 03:01:24;;;;;;;4.73;2.43;;;18.60;99.90;;;;;;6214533;23;20187;-76
2021/07/28 03:03:50;;;;;;;4.77;2.70;;;18.70;99.90;;;;;;6215004;23;20181;-75
2021/07/28 03:06:17;;;;;;;4.03;2.70;;;18.70;99.90;;;;;;6215621;23;20180;-75
2021/07/28 03:08:45;;;;;;;5.03;2.50;;;18.70;99.90;;;;;;6215356;23;20204;-76
2021/07/28 03:11:12;;;;;;;6.83;2.97;;;18.80;99.90;;;;;;6215447;23;20176;-75
2021/07/28 03:13:39;;;;;;;4.90;2.97;;;18.70;99.90;;;;;;6215615;23;20177;-75
2021/07/28 03:16:07;;;;;;;5.37;2.63;;;18.70;99.90;;;;;;6215395;23;20180;-76
2021/07/28 03:18:33;;;;;;;4.77;2.37;;;18.80;99.90;;;;;;6215443;23;20204;-75
2021/07/28 03:21:00;;;;;;;5.27;2.73;;;18.70;99.90;;;;;;6214917;23;20188;-74
2021/07/28 03:23:27;;;;;;;3.93;2.57;;;18.70;99.90;;;;;;6215331;23;20184;-75
2021/07/28 03:25:55;;;;;;;5.87;2.53;;;18.70;99.90;;;;;;6215572;23;20206;-74
2021/07/28 03:28:22;;;;;;;4.83;2.67;;;18.60;99.90;;;;;;6215488;23;20212;-75
2021/07/28 03:30:49;;;;;;;4.43;2.23;;;18.50;99.90;;;;;;6215447;23;20186;-74
2021/07/28 03:33:17;;;;;;;3.83;2.50;;;18.50;99.90;;;;;;6214529;23;20180;-75
2021/07/28 03:35:43;;;;;;;6.30;2.67;;;18.60;99.90;;;;;;6215415;23;20180;-74
2021/07/28 03:38:10;;;;;;;5.70;2.50;;;18.60;99.90;;;;;;6215138;23;20528;-75
2021/07/28 03:40:37;;;;;;;4.30;2.40;;;18.50;99.90;;;;;;6215222;23;20191;-75
2021/07/28 03:43:06;;;;;;;3.30;1.73;;;18.40;99.90;;;;;;6214881;23;20183;-74
2021/07/28 03:45:32;;;;;;;4.00;2.00;;;18.30;99.90;;;;;;6215197;23;20184;-74
2021/07/28 03:47:59;;;;;;;3.30;2.00;;;18.30;99.90;;;;;;6214854;23;20203;-74
2021/07/28 03:50:26;;;;;;;3.77;2.00;;;18.40;99.90;;;;;;6214682;23;20181;-74
2021/07/28 03:52:53;;;;;;;3.63;1.73;;;18.40;99.90;;;;;;6214839;23;20177;-74
2021/07/28 03:55:20;;;;;;;5.10;2.00;;;18.30;99.90;;;;;;6215363;23;20177;-74
2021/07/28 03:57:46;;;;;;;2.97;1.67;;;18.40;99.90;;;;;;6214914;23;20196;-74
2021/07/28 04:00:16;;;;;;;3.20;1.90;;;18.50;99.90;;;;;;6214966;23;20184;-75
2021/07/28 04:02:42;;;;;;;2.97;1.83;;;18.40;99.90;;;;;;6214655;23;20180;-75
2021/07/28 04:05:10;;;;;;;7.63;1.93;;;18.40;99.90;;;;;;6215701;23;20191;-74
2021/07/28 04:07:37;;;;;;;6.77;2.03;;;18.40;99.90;;;;;;6215371;23;20196;-74
2021/07/28 04:10:05;;;;;;;6.03;1.90;;;18.40;99.90;;;;;;6215020;23;20216;-74
2021/07/28 04:12:31;;;;;;;3.13;1.60;;;18.40;99.90;;;;;;6216130;23;20176;-75
2021/07/28 04:14:58;;;;;;;3.47;1.70;;;18.40;99.90;;;;;;6217253;23;20181;-74
2021/07/28 04:17:26;;;;;;;3.23;1.93;;;18.30;99.90;;;;;;6217240;23;20671;-74
2021/07/28 04:19:53;;;;;;;3.40;1.40;;;18.30;99.90;;;;;;6217246;23;20176;-74
2021/07/28 04:22:21;;;;;;;5.03;1.73;;;18.20;99.90;;;;;;6216437;23;20184;-74
2021/07/28 04:24:48;;;;;;;4.20;1.70;;;18.10;99.90;;;;;;6217069;23;20176;-75
2021/07/28 04:27:15;;;;;;;6.43;1.70;;;18.10;99.90;;;;;;6217184;23;20628;-75
2021/07/28 04:29:42;;;;;;;2.10;1.53;;;18.10;99.90;;;;;;6216601;23;20674;-74
2021/07/28 04:32:09;;;;;;;3.63;1.80;;;18.00;99.90;;;;;;6217449;23;20195;-74
2021/07/28 04:34:38;;;;;;;2.40;1.77;;;18.00;99.90;;;;;;6216374;23;20199;-74
2021/07/28 04:37:05;;;;;;;2.30;1.40;;;17.90;99.90;;;;;;6216549;23;20183;-75
2021/07/28 04:39:34;;;;;;;4.53;1.63;;;17.80;99.90;;;;;;6216118;23;20651;-74
2021/07/28 04:42:00;;;;;;;2.57;1.50;;;17.70;99.90;;;;;;6216692;23;20239;-74
2021/07/28 04:44:27;;;;;;;3.43;1.73;;;17.70;99.90;;;;;;6218337;23;20180;-75
2021/07/28 04:46:56;;;;;;;3.27;1.80;;;17.80;99.90;;;;;;6217961;23;20186;-75
2021/07/28 04:49:23;;;;;;;3.60;1.40;;;17.90;99.90;;;;;;6216824;23;20286;-75
2021/07/28 04:51:51;;;;;;;2.50;1.60;;;17.90;99.90;;;;;;6217053;23;20176;-75
2021/07/28 04:54:18;;;;;;;1.83;1.40;;;17.80;99.90;;;;;;6217231;23;20189;-75
2021/07/28 04:56:45;;;;;;;5.10;2.10;;;17.80;99.90;;;;;;6217256;23;20176;-74
2021/07/28 04:59:12;;;;;;;2.90;1.67;;;17.80;99.90;;;;;;6216346;23;20201;-74
2021/07/28 05:01:39;;;;;;;2.70;1.47;;;18.00;99.90;;;;;;6216896;23;20177;-74
2021/07/28 05:04:06;;;;;;;5.03;2.10;;;18.30;99.90;;;;;;6217363;23;20177;-74
2021/07/28 05:06:34;;;;;;;3.40;1.50;;;18.40;99.90;;;;;;6217415;23;20177;-75
2021/07/28 05:09:02;;;;;;;4.53;1.70;;;18.40;99.90;;;;;;6216359;23;20211;-74
2021/07/28 05:11:28;;;;;;;2.17;1.20;;;18.50;99.90;;;;;;6216524;23;20191;-75
2021/07/28 05:13:55;;;;;;;2.60;1.43;;;18.40;99.90;;;;;;6217231;23;20180;-76
2021/07/28 05:16:22;;;;;;;4.13;1.30;;;18.60;99.90;;;;;;6216478;23;20609;-75
2021/07/28 05:18:49;;;;;;;1.95;1.08;;;18.70;99.90;;;;;;6216240;23;20204;-75
2021/07/28 05:21:15;;;;;;;2.50;1.10;;;18.80;99.90;;;;;;6215745;23;20195;-76
2021/07/28 05:23:43;;;;;;;5.70;1.20;;;19.30;99.90;;;;;;6216770;23;20176;-75
2021/07/28 05:26:11;;;;;;;5.70;1.40;;;19.90;99.90;;;;;;6216796;23;20203;-75
2021/07/28 05:28:38;;;;;;;1.60;1.13;;;20.30;99.90;;;;;;6215280;23;20200;-75
2021/07/28 05:31:04;;;;;;;4.40;1.50;;;20.30;99.90;;;;;;6215211;23;20649;-76
2021/07/28 05:33:31;;;;;;;1.98;1.25;;;20.20;99.90;;;;;;6216386;23;20187;-76
2021/07/28 05:35:58;;;;;;;2.55;1.10;;;20.60;99.90;;;;;;6216380;23;20184;-76
2021/07/28 05:38:25;;;;;;;6.70;2.13;;;20.60;99.90;;;;;;6215979;23;20505;-76
2021/07/28 05:40:55;;;;;;;2.63;1.13;;;20.70;99.90;;;;;;6216753;23;20547;-76
2021/07/28 05:43:24;;;;;;;4.80;1.33;;;21.30;99.90;;;;;;6216918;23;20211;-76
2021/07/28 05:45:51;;;;;;;1.52;1.08;;;22.20;99.90;;;;;;6216107;23;20173;-75
2021/07/28 05:48:18;;;;;;;1.83;1.00;;;23.10;99.90;;;;;;6216262;23;20196;-76
2021/07/28 05:50:45;;;;;;;3.42;1.40;;;23.70;99.90;;;;;;6216365;23;20218;-76
2021/07/28 05:53:11;;;;;;;2.08;1.10;;;24.20;99.90;;;;;;6215538;23;20186;-75
2021/07/28 05:55:38;;;;;;;2.80;1.20;;;24.00;99.90;;;;;;6216243;23;20485;-75
2021/07/28 05:58:05;;;;;;;5.05;1.40;;;24.10;99.90;;;;;;6216382;23;20649;-76
2021/07/28 06:00:33;;;;;;;3.35;1.48;;;24.40;99.90;;;;;;6215973;23;20288;-76
2021/07/28 06:03:01;;;;;;;3.47;1.63;;;24.50;99.90;;;;;;6216675;23;20176;-76
2021/07/28 06:05:28;;;;;;;11.10;1.40;;;23.80;99.90;;;;;;6216212;23;20543;-76
2021/07/28 06:07:55;;;;;;;1.98;1.20;;;23.40;99.90;;;;;;6216287;23;20197;-75
2021/07/28 06:10:21;;;;;;;4.78;1.50;;;22.90;99.90;;;;;;6216688;23;20208;-76
2021/07/28 06:12:48;;;;;;;1.52;1.20;;;22.70;99.90;;;;;;6215865;23;20180;-76
2021/07/28 06:15:15;;;;;;;3.22;1.30;;;22.60;99.90;;;;;;6216208;23;20183;-76
2021/07/28 06:17:43;;;;;;;4.63;1.42;;;23.40;99.90;;;;;;6215751;23;20203;-76
2021/07/28 06:20:11;;;;;;;3.70;1.50;;;23.80;99.90;;;;;;6215185;23;20191;-75
2021/07/28 06:22:38;;;;;;;3.58;1.40;;;23.90;99.90;;;;;;6215415;23;20226;-77
2021/07/28 06:25:08;;;;;;;3.03;1.10;;;24.00;99.90;;;;;;6216267;23;20183;-76
2021/07/28 06:27:35;;;;;;;2.92;1.20;;;24.10;99.90;;;;;;6216042;23;20206;-76
2021/07/28 06:30:01;;;;;;;4.10;1.48;;;23.70;99.90;;;;;;6215821;23;20214;-77
2021/07/28 06:32:28;;;;;;;1.95;1.10;;;23.40;99.90;;;;;;6216139;23;20519;-76
2021/07/28 06:34:56;;;;;;;1.77;1.20;;;23.20;99.90;;;;;;6215177;23;20619;-76
2021/07/28 06:37:23;;;;;;;2.33;1.02;;;22.80;99.90;;;;;;6215693;23;20197;-77
2021/07/28 06:39:50;;;;;;;3.00;1.20;;;22.50;99.90;;;;;;6215341;23;20208;-76
2021/07/28 06:42:17;;;;;;;4.07;2.05;;;22.00;99.90;;;;;;6215805;23;20176;-76
2021/07/28 06:44:45;;;;;;;2.38;1.30;;;22.10;99.90;;;;;;6216019;23;20176;-76
2021/07/28 06:47:11;;;;;;;1.85;1.10;;;22.40;99.90;;;;;;6215450;23;20181;-76
2021/07/28 06:49:38;;;;;;;1.90;1.23;;;23.00;99.90;;;;;;6215221;23;20219;-76
2021/07/28 06:52:06;;;;;;;2.25;0.90;;;23.30;99.90;;;;;;6215141;23;20513;-77
2021/07/28 06:54:33;;;;;;;4.00;1.10;;;23.60;99.90;;;;;;6215853;23;20260;-77
2021/07/28 06:57:00;;;;;;;3.13;1.00;;;24.10;99.90;;;;;;6216079;23;20178;-77
2021/07/28 06:59:27;;;;;;;1.90;0.80;;;24.00;99.90;;;;;;6214962;23;20509;-77
2021/07/28 07:01:57;;;;;;;1.88;0.90;;;24.20;99.90;;;;;;6215856;23;20509;-76
2021/07/28 07:04:24;;;;;;;3.63;1.00;;;24.60;99.90;;;;;;6216492;23;20180;-76
2021/07/28 07:06:51;;;;;;;2.28;1.00;;;25.10;99.90;;;;;;6215699;23;20505;-76
2021/07/28 07:09:19;;;;;;;1.52;0.80;;;24.80;99.90;;;;;;6215482;23;20196;-76
2021/07/28 07:11:46;;;;;;;2.90;0.93;;;24.90;99.90;;;;;;6215319;23;20200;-77
2021/07/28 07:14:12;;;;;;;1.20;0.90;;;24.60;99.90;;;;;;6215548;23;20183;-77
2021/07/28 07:16:39;;;;;;;4.45;0.82;;;25.20;99.90;;;;;;6215481;23;20184;-76
2021/07/28 07:19:06;;;;;;;0.95;0.82;;;25.70;99.90;;;;;;6214831;23;20196;-76
2021/07/28 07:21:33;;;;;;;1.88;1.00;;;25.80;99.90;;;;;;6214536;23;20242;-77
2021/07/28 07:23:59;;;;;;;3.65;0.95;;;25.60;99.90;;;;;;6214938;23;20180;-76
2021/07/28 07:26:28;;;;;;;1.65;0.82;;;24.70;99.90;;;;;;6214625;23;20176;-77
2021/07/28 07:28:54;;;;;;;2.28;1.20;;;24.10;99.90;;;;;;6214659;23;20694;-77
2021/07/28 07:31:21;;;;;;;0.93;0.88;;;23.80;99.90;;;;;;6214999;23;20204;-77
2021/07/28 07:33:48;;;;;;;1.70;1.20;;;23.50;99.90;;;;;;6215742;23;20187;-77
2021/07/28 07:36:17;;;;;;;1.73;1.27;;;23.00;99.90;;;;;;6215096;23;20180;-77
2021/07/28 07:38:44;;;;;;;2.40;1.20;;;22.50;99.90;;;;;;6215279;23;20200;-77
2021/07/28 07:41:11;;;;;;;4.00;1.08;;;22.50;99.90;;;;;;6215427;23;20176;-77
2021/07/28 07:43:39;;;;;;;1.63;0.82;;;23.10;99.90;;;;;;6215902;23;20176;-77
2021/07/28 07:46:06;;;;;;;2.15;1.27;;;24.20;99.90;;;;;;6215810;23;20176;-77
2021/07/28 07:48:33;;;;;;;1.83;0.90;;;25.20;99.90;;;;;;6215146;23;20206;-76
2021/07/28 07:51:00;;;;;;;2.63;1.00;;;26.30;99.90;;;;;;6215450;23;20210;-77
2021/07/28 07:53:26;;;;;;;2.95;1.00;;;26.60;99.90;;;;;;6214884;23;20186;-77
2021/07/28 07:55:55;;;;;;;3.35;1.10;;;26.40;99.90;;;;;;6215273;23;20187;-77
2021/07/28 07:58:22;;;;;;;4.00;1.17;;;26.30;99.90;;;;;;6214642;23;20288;-76
2021/07/28 08:00:50;;;;;;;1.27;1.00;;;26.80;99.90;;;;;;6215633;23;20180;-77
2021/07/28 08:03:17;;;;;;;3.13;1.10;;;26.90;99.90;;;;;;6215135;23;20183;-77
2021/07/28 08:05:44;;;;;;;4.13;0.95;;;26.60;99.90;;;;;;6215579;23;20176;-79
2021/07/28 08:08:10;;;;;;;2.25;1.00;;;26.90;99.90;;;;;;6215521;23;20196;-77
2021/07/28 08:10:37;;;;;;;2.63;0.90;;;26.20;99.90;;;;;;6215336;23;20208;-77
2021/07/28 08:13:04;;;;;;;1.50;1.10;;;26.20;99.90;;;;;;6215350;23;20183;-78
2021/07/28 08:15:31;;;;;;;1.60;1.00;;;26.60;99.90;;;;;;6215055;23;20632;-77
2021/07/28 08:18:00;;;;;;;2.58;0.90;;;26.90;99.90;;;;;;6214820;23;20207;-75
2021/07/28 08:20:27;;;;;;;1.33;0.90;;;26.80;99.90;;;;;;6215047;23;20258;-75
2021/07/28 08:22:54;;;;;;;2.38;1.05;;;27.20;99.90;;;;;;6214945;23;20177;-76
2021/07/28 08:25:21;;;;;;;1.75;0.85;;;26.80;99.90;;;;;;6215926;23;20642;-76
2021/07/28 08:27:47;;;;;;;3.65;1.00;;;26.40;99.90;;;;;;6215028;23;20219;-76
2021/07/28 08:30:14;;;;;;;1.98;1.15;;;26.00;99.90;;;;;;6215394;23;20226;-77
2021/07/28 08:32:42;;;;;;;1.25;0.98;;;26.20;99.90;;;;;;6215681;23;20533;-76
2021/07/28 08:35:10;;;;;;;2.85;1.30;;;26.00;99.90;;;;;;6215609;23;20176;-77
2021/07/28 08:37:39;;;;;;;1.27;0.98;;;26.00;99.90;;;;;;6214994;23;20203;-78
2021/07/28 08:40:10;;;;;;;0.93;0.80;;;25.80;99.90;;;;;;6215791;23;20501;-78
2021/07/28 08:42:39;;;;;;;1.65;0.93;;;25.20;99.90;;;;;;6215028;23;20698;-76
2021/07/28 08:45:07;;;;;;;2.15;0.90;;;24.30;99.90;;;;;;6215055;23;20183;-78
2021/07/28 08:47:36;;;;;;;1.90;0.95;;;24.20;99.90;;;;;;6215288;23;20196;-76
2021/07/28 08:50:04;;;;;;;1.20;0.80;;;24.70;99.90;;;;;;6215110;23;20200;-78
2021/07/28 08:52:34;;;;;;;1.70;0.90;;;24.70;99.90;;;;;;6214860;23;20195;-77
2021/07/28 08:55:01;;;;;;;1.20;0.80;;;25.00;99.90;;;;;;6215089;23;20184;-77
2021/07/28 08:57:29;;;;;;;2.40;0.80;;;25.20;99.90;;;;;;6215537;23;20197;-75
2021/07/28 08:59:57;;;;;;;2.55;1.13;;;25.30;99.90;;;;;;6217102;23;20184;-75
2021/07/28 09:02:24;;;;;;;3.13;0.80;;;25.30;99.90;;;;;;6217303;23;20238;-75
2021/07/28 09:04:50;;;;;;;1.27;0.80;;;25.20;99.90;;;;;;6217032;23;20187;-75
2021/07/28 09:07:20;;;;;;;1.00;0.60;;;25.80;99.90;;;;;;6216570;23;20177;-78
2021/07/28 09:09:53;;;;;;;2.92;0.75;;;26.30;99.90;;;;;;6216759;23;20477;-79
2021/07/28 09:12:20;;;;;;;1.38;0.85;;;26.40;99.90;;;;;;6217303;23;20180;-76
2021/07/28 09:14:56;;;;;;;1.25;1.05;;;26.40;99.90;;;;;;6217115;23;20182;-75
2021/07/28 09:17:27;;;;;;;1.17;0.65;;;25.60;99.90;;;;;;6217080;23;20242;-76
2021/07/28 09:19:54;;;;;;;1.00;0.60;;;25.50;99.90;;;;;;6216599;23;20188;-75
2021/07/28 09:22:21;;;;;;;1.88;0.52;;;25.50;99.90;;;;;;6216415;23;20184;-75
2021/07/28 09:25:11;;;;;;;1.00;0.60;;;25.90;99.90;;;;;;6216398;23;20180;-78
2021/07/28 09:27:41;;;;;;;0.85;0.50;;;25.60;99.90;;;;;;6216759;23;20247;-77
2021/07/28 09:30:09;;;;;;;1.15;0.73;;;25.20;99.90;;;;;;6216168;23;20200;-75
2021/07/28 09:32:37;;;;;;;3.85;0.70;;;24.90;99.90;;;;;;6216790;23;20176;-76
2021/07/28 09:35:05;;;;;;;1.63;0.60;;;24.60;99.90;;;;;;6217006;23;20215;-74
2021/07/28 09:37:39;;;;;;;1.13;0.82;;;24.90;99.90;;;;;;6216864;23;20228;-75
2021/07/28 09:40:20;;;;;;;1.83;0.98;;;25.10;99.90;;;;;;6216883;23;20176;-78
2021/07/28 09:42:47;;;;;;;0.77;0.60;;;25.20;99.90;;;;;;6216592;23;20570;-78
2021/07/28 09:45:14;;;;;;;1.13;0.75;;;25.10;99.90;;;;;;6216670;23;20180;-76
2021/07/28 09:47:41;;;;;;;1.30;0.60;;;25.20;99.90;;;;;;6216609;23;20331;-80
2021/07/28 09:50:14;;;;;;;2.83;0.70;;;25.20;99.90;;;;;;6216570;23;20600;-76
2021/07/28 09:52:41;;;;;;;1.38;0.70;;;24.70;99.90;;;;;;6216068;23;20184;-80
2021/07/28 09:55:23;;;;;;;2.70;0.70;;;25.00;99.90;;;;;;6216883;23;20255;-77
2021/07/28 09:57:53;;;;;;;1.50;0.55;;;25.40;99.90;;;;;;6216722;23;20196;-75
2021/07/28 10:00:20;;;;;;;1.63;0.80;;;25.70;99.90;;;;;;6216718;23;20202;-77
2021/07/28 10:02:48;;;;;;;7.15;1.10;;;25.80;99.90;;;;;;6217049;23;20180;-78
2021/07/28 10:05:19;;;;;;;1.45;0.75;;;25.40;99.90;;;;;;6216547;23;20180;-78
2021/07/28 10:07:47;;;;;;;1.67;0.60;;;25.30;99.90;;;;;;6216443;23;20298;-78
2021/07/28 10:10:15;;;;;;;0.85;0.65;;;24.90;99.90;;;;;;6216288;23;20177;-79
2021/07/28 10:12:44;;;;;;;2.03;0.50;;;24.80;99.90;;;;;;6216257;23;20631;-76
2021/07/28 10:15:11;;;;;;;5.05;1.10;;;24.60;99.90;;;;;;6216691;23;20176;-77
2021/07/28 10:17:40;;;;;;;1.27;0.60;;;24.20;99.90;;;;;;6216443;23;20207;-77
2021/07/28 10:20:08;;;;;;;2.53;0.85;;;24.10;99.90;;;;;;6215967;23;20180;-79
2021/07/28 10:22:37;;;;;;;2.67;0.75;;;24.10;99.90;;;;;;6215806;23;20185;-79
2021/07/28 10:25:07;;;;;;;1.27;0.68;;;23.90;99.90;;;;;;6216398;23;20176;-78
2021/07/28 10:27:39;;;;;;;0.75;0.68;;;24.10;99.90;;;;;;6215861;23;20224;-75
2021/07/28 10:30:10;;;;;;;3.60;0.77;;;24.00;99.90;;;;;;6215904;23;20238;-78
2021/07/28 10:32:37;;;;;;;1.40;0.57;;;23.90;99.90;;;;;;6216163;23;20183;-78
2021/07/28 10:35:28;;;;;;;0.82;0.55;;;23.70;99.90;;;;;;6216366;23;20183;-75
2021/07/28 10:37:57;;;;;;;1.15;0.82;;;23.70;99.90;;;;;;6216193;23;20200;-79
2021/07/28 10:40:58;;;;;;;2.42;0.90;;;23.60;99.90;;;;;;6216373;23;20176;-80
2021/07/28 10:43:25;;;;;;;0.82;0.60;;;23.50;99.90;;;;;;6216148;23;20180;-78
2021/07/28 10:46:00;;;;;;;3.13;0.90;;;23.50;99.90;;;;;;6215604;23;20183;-75
2021/07/28 10:48:51;;;;;;;3.42;0.73;;;23.40;99.90;;;;;;6217612;23;20199;-80
2021/07/28 10:51:53;;;;;;;2.50;0.82;;;23.60;99.90;;;;;;6222820;23;20215;-78
2021/07/28 10:54:59;;;;;;;1.27;0.80;;;24.00;99.90;;;;;;6159724;23;20212;-78
2021/07/28 10:58:06;;;;;;;1.83;0.88;;;24.00;99.90;;;;;;6222797;23;20196;-78
2021/07/28 11:00:58;;;;;;;1.77;0.70;;;23.90;99.90;;;;;;6215658;23;20187;-79
2021/07/28 11:03:37;;;;;;;0.93;0.63;;;23.80;99.90;;;;;;6224308;23;20183;-77
2021/07/28 11:06:22;;;;;;;1.88;0.70;;;23.70;99.90;;;;;;6222573;23;20207;-78
2021/07/28 11:08:49;;;;;;;2.15;0.80;;;23.90;99.90;;;;;;6215923;23;20263;-77
2021/07/28 11:11:30;;;;;;;1.80;0.80;;;24.00;99.90;;;;;;6216546;23;20208;-77
2021/07/28 11:14:04;;;;;;;1.38;0.80;;;23.90;99.90;;;;;;6215708;23;20172;-74
2021/07/28 11:16:34;;;;;;;1.20;0.73;;;24.10;99.90;;;;;;6215918;23;20226;-76
2021/07/28 11:19:03;;;;;;;1.88;0.70;;;24.30;99.90;;;;;;6216159;23;20235;-76
2021/07/28 11:21:30;;;;;;;2.08;0.70;;;24.50;99.90;;;;;;6215373;23;20195;-75
2021/07/28 11:24:02;;;;;;;1.42;0.80;;;24.70;99.90;;;;;;6215833;23;20263;-74
2021/07/28 11:26:34;;;;;;;1.63;0.90;;;24.80;99.90;;;;;;6215598;23;20652;-76
2021/07/28 11:29:04;;;;;;;2.90;1.02;;;25.00;99.90;;;;;;6216000;23;20196;-79
2021/07/28 11:31:35;;;;;;;1.50;0.73;;;25.10;99.90;;;;;;6215506;23;20251;-76
2021/07/28 11:34:13;;;;;;;1.33;0.70;;;25.10;99.90;;;;;;6216205;23;20176;-78
2021/07/28 11:36:41;;;;;;;0.98;0.70;;;25.40;99.90;;;;;;6215977;23;20231;-78
2021/07/28 11:39:10;;;;;;;2.33;0.70;;;25.00;99.90;;;;;;6215813;23;20271;-77
2021/07/28 11:41:37;;;;;;;1.52;0.43;;;24.70;99.90;;;;;;6215294;23;20640;-78
2021/07/28 11:44:04;;;;;;;1.17;0.80;;;24.50;99.90;;;;;;6215512;23;20176;-77
2021/07/28 11:46:30;;;;;;;1.48;0.70;;;23.90;99.90;;;;;;6215758;23;20176;-77
2021/07/28 11:48:59;;;;;;;1.15;0.70;;;23.50;99.90;;;;;;6215275;23;20675;-78
2021/07/28 11:51:29;;;;;;;1.13;0.60;;;23.20;99.90;;;;;;6215117;23;20733;-77
2021/07/28 11:54:08;;;;;;;1.52;0.90;;;22.50;99.90;;;;;;6215506;23;20272;-76
2021/07/28 11:56:35;;;;;;;2.22;0.98;;;22.30;99.90;;;;;;6215753;23;20516;-77
2021/07/28 11:59:02;;;;;;;1.95;0.80;;;22.30;99.90;;;;;;6215715;23;20226;-78
2021/07/28 12:01:30;;;;;;;2.40;1.25;;;22.30;99.90;;;;;;6215088;23;20180;-78
2021/07/28 12:03:58;;;;;;;3.20;0.73;;;22.30;99.90;;;;;;6215715;23;20176;-77
2021/07/28 12:06:37;;;;;;;2.78;0.80;;;22.50;99.90;;;;;;6215826;23;20184;-78
2021/07/28 12:09:13;;;;;;;2.30;0.90;;;22.70;99.90;;;;;;6215177;23;20258;-78
2021/07/28 12:12:04;;;;;;;1.27;0.70;;;22.60;99.90;;;;;;6215179;23;20254;-77
2021/07/28 12:14:38;;;;;;;1.90;0.70;;;22.60;99.90;;;;;;6200248;23;20177;-77
2021/07/28 12:17:08;;;;;;;0.82;0.70;;;23.00;99.90;;;;;;6215215;23;20547;-77
2021/07/28 12:19:38;;;;;;;1.55;0.60;;;23.20;99.90;;;;;;6215368;23;20216;-77
2021/07/28 12:22:10;;;;;;;2.55;1.33;;;23.40;99.90;;;;;;6214759;23;20188;-77
2021/07/28 12:24:47;;;;;;;1.73;0.80;;;23.50;99.90;;;;;;6215621;23;20176;-79
2021/07/28 12:27:53;;;;;;;1.30;0.77;;;23.40;99.90;;;;;;6215329;23;20180;-77
2021/07/28 12:30:22;;;;;;;1.00;0.68;;;23.50;99.90;;;;;;6215338;23;20176;-77
2021/07/28 12:32:52;;;;;;;0.73;0.60;;;23.40;99.90;;;;;;6215450;23;20204;-78
2021/07/28 12:35:32;;;;;;;1.67;0.70;;;23.40;99.90;;;;;;6217212;23;20181;-78
2021/07/28 12:38:22;;;;;;;1.73;0.75;;;23.60;99.90;;;;;;6217185;23;20202;-78
2021/07/28 12:40:53;;;;;;;1.10;0.70;;;23.80;99.90;;;;;;6212573;23;20184;-78
2021/07/28 12:43:21;;;;;;;2.85;0.55;;;23.70;99.90;;;;;;6217758;23;20182;-79
2021/07/28 12:45:56;;;;;;;1.13;0.70;;;23.20;99.90;;;;;;6216916;23;20263;-77
2021/07/28 12:48:24;;;;;;;1.10;0.80;;;22.30;99.90;;;;;;6216971;23;20196;-78
2021/07/28 12:50:51;;;;;;;1.08;0.55;;;22.00;99.90;;;;;;6217227;23;20183;-78
2021/07/28 12:53:18;;;;;;;1.38;0.50;;;22.00;99.90;;;;;;6217272;23;20180;-78
2021/07/28 12:55:46;;;;;;;0.93;0.65;;;22.20;99.90;;;;;;6217425;23;20183;-77
2021/07/28 12:58:13;;;;;;;1.88;0.60;;;22.50;99.90;;;;;;6216840;23;20679;-78
2021/07/28 13:00:40;;;;;;;0.80;0.40;;;22.40;99.90;;;;;;6216875;23;20180;-77